createdAt,value
2023-02-28T00:02:59.484Z,103006.50
2023-02-28T00:08:03.255Z,103012.50
2023-02-28T00:13:08.873Z,103016.72
2023-02-28T00:18:12.771Z,103011.25
2023-02-28T00:23:16.473Z,103012.34
2023-02-28T00:28:21.736Z,103009.66
2023-02-28T00:33:25.566Z,103009.47
2023-02-28T00:38:31.183Z,103009.50
2023-02-28T00:43:37.918Z,103000.97
2023-02-28T00:48:41.695Z,103005.00
2023-02-28T00:53:45.420Z,103005.34
2023-02-28T00:58:50.443Z,102995.19
2023-02-28T01:03:56.491Z,102997.38
2023-02-28T01:09:00.598Z,103010.88
2023-02-28T01:14:07.364Z,103008.88
2023-02-28T01:19:11.169Z,103023.41
2023-02-28T01:24:15.772Z,103017.56
2023-02-28T01:29:20.873Z,103018.66
2023-02-28T01:34:24.623Z,103011.97
2023-02-28T01:39:28.576Z,103021.75
2023-02-28T01:45:20.325Z,103011.59
2023-02-28T01:50:28.048Z,103014.34
2023-02-28T01:55:32.638Z,103018.69
2023-02-28T02:00:37.753Z,103020.16
2023-02-28T02:05:43.100Z,103010.84
2023-02-28T02:10:51.235Z,103005.00
2023-02-28T02:16:04.552Z,102996.94
2023-02-28T02:21:47.205Z,102990.03
2023-02-28T02:27:06.039Z,102988.91
2023-02-28T02:32:32.562Z,102988.16
2023-02-28T02:37:42.800Z,102984.50
2023-02-28T02:42:53.099Z,102981.34
2023-02-28T02:48:01.199Z,102988.63
2023-02-28T02:53:11.031Z,102987.69
2023-02-28T02:58:17.026Z,102986.41
2023-02-28T03:03:29.960Z,102982.22
2023-02-28T03:08:38.566Z,102987.84
2023-02-28T03:13:53.685Z,102990.03
2023-02-28T03:19:08.883Z,102985.06
2023-02-28T03:24:19.561Z,102983.78
2023-02-28T03:29:30.421Z,102977.00
2023-02-28T03:34:38.170Z,102978.66
2023-02-28T03:39:47.661Z,102978.66
2023-02-28T03:44:55.825Z,102976.44
2023-02-28T03:50:01.850Z,102975.87
2023-02-28T03:55:11.805Z,102983.53
2023-02-28T04:00:22.042Z,102986.25
2023-02-28T04:05:26.740Z,102989.88
2023-02-28T04:10:31.877Z,102991.19
2023-02-28T04:15:35.580Z,102991.19
2023-02-28T04:20:39.311Z,102990.81
2023-02-28T04:25:44.599Z,102990.25
2023-02-28T04:30:48.280Z,102982.41
2023-02-28T04:36:00.761Z,102990.25
2023-02-28T04:41:06.909Z,103000.44
2023-02-28T04:46:12.362Z,102996.25
2023-02-28T04:51:17.684Z,103005.56
2023-02-28T04:56:24.895Z,103009.34
2023-02-28T05:01:30.736Z,103012.63
2023-02-28T05:06:35.552Z,103013.88
2023-02-28T05:11:41.551Z,103015.53
2023-02-28T05:16:45.460Z,103016.44
2023-02-28T05:21:54.244Z,103019.87
2023-02-28T05:26:59.304Z,103013.31
2023-02-28T05:32:03.093Z,103027.38
2023-02-28T05:37:06.990Z,103026.87
2023-02-28T05:42:12.029Z,103022.84
2023-02-28T05:47:16.564Z,103030.66
2023-02-28T05:52:20.264Z,103034.84
2023-02-28T05:57:25.699Z,103031.19
2023-02-28T06:02:29.479Z,103025.19
2023-02-28T06:07:33.122Z,103023.37
2023-02-28T06:12:39.012Z,103011.31
2023-02-28T06:17:43.123Z,103017.34
2023-02-28T06:22:47.054Z,103027.72
2023-02-28T06:27:52.128Z,103020.97
2023-02-28T06:32:56.255Z,103004.19
2023-02-28T06:38:00.063Z,103028.25
2023-02-28T06:43:05.428Z,103024.03
2023-02-28T06:48:09.291Z,103022.56
2023-02-28T06:53:12.986Z,103029.66
2023-02-28T06:58:19.703Z,103014.16
2023-02-28T07:03:24.130Z,103034.72
2023-02-28T07:08:28.643Z,103029.06
2023-02-28T07:13:33.705Z,103040.69
2023-02-28T07:18:37.834Z,103055.97
2023-02-28T07:23:42.734Z,103057.56
2023-02-28T07:28:49.563Z,103055.19
2023-02-28T07:33:54.448Z,103054.78
2023-02-28T07:39:00.903Z,103056.38
2023-02-28T07:44:06.077Z,103065.62
2023-02-28T07:49:09.858Z,103062.84
2023-02-28T07:54:13.550Z,103062.72
2023-02-28T07:59:18.590Z,103058.06
2023-02-28T08:04:22.286Z,103063.09
2023-02-28T08:09:26.148Z,103064.84
2023-02-28T08:14:31.315Z,103072.03
2023-02-28T08:19:35.105Z,103066.28
2023-02-28T08:24:38.944Z,103063.16
2023-02-28T08:29:44.037Z,103069.50
2023-02-28T08:34:48.082Z,103072.88
2023-02-28T08:39:54.747Z,103062.22
2023-02-28T08:45:01.184Z,103077.56
2023-02-28T08:50:05.625Z,103057.22
2023-02-28T08:55:10.432Z,103061.03
2023-02-28T09:00:16.279Z,103062.78
2023-02-28T09:05:20.036Z,103066.06
2023-02-28T09:10:23.748Z,103074.63
2023-02-28T09:15:28.785Z,103073.47
2023-02-28T09:20:32.495Z,103077.47
2023-02-28T09:25:36.588Z,103073.31
2023-02-28T09:30:41.726Z,103063.41
2023-02-28T09:35:45.604Z,103057.28
2023-02-28T09:40:52.717Z,103076.06
2023-02-28T09:46:04.638Z,103073.22
2023-02-28T09:51:42.335Z,103071.69
2023-02-28T09:56:47.490Z,103072.34
2023-02-28T10:02:00.194Z,103072.62
2023-02-28T10:07:18.463Z,103072.50
2023-02-28T10:12:22.048Z,103071.28
2023-02-28T10:17:34.524Z,103071.47
2023-02-28T10:22:50.834Z,103062.28
2023-02-28T10:27:56.476Z,103067.69
2023-02-28T10:33:01.604Z,103055.44
2023-02-28T10:38:16.764Z,103043.31
2023-02-28T10:43:23.355Z,103041.53
2023-02-28T10:48:40.010Z,103036.78
2023-02-28T10:54:00.987Z,103037.22
2023-02-28T10:59:28.869Z,103032.25
2023-02-28T11:04:40.351Z,103025.31
2023-02-28T11:09:48.515Z,103019.94
2023-02-28T11:14:55.385Z,103016.44
2023-02-28T11:20:04.496Z,103010.31
2023-02-28T11:25:17.605Z,103013.78
2023-02-28T11:30:35.034Z,103009.28
2023-02-28T11:35:41.715Z,103008.22
2023-02-28T11:40:51.577Z,102999.37
2023-02-28T11:46:08.379Z,102997.50
2023-02-28T11:51:20.416Z,102987.44
2023-02-28T11:56:33.519Z,102979.75
2023-02-28T12:01:49.800Z,102986.09
2023-02-28T12:07:03.627Z,102987.69
2023-02-28T12:12:21.983Z,102977.16
2023-02-28T12:17:45.529Z,102969.31
2023-02-28T12:23:02.813Z,102965.97
2023-02-28T12:28:07.093Z,102954.34
2023-02-28T12:33:14.666Z,102956.91
2023-02-28T12:38:24.139Z,102964.56
2023-02-28T12:43:35.040Z,102952.16
2023-02-28T12:48:44.407Z,102936.69
2023-02-28T12:54:10.545Z,102931.50
2023-02-28T12:59:24.445Z,102933.47
2023-02-28T13:04:52.402Z,102932.44
2023-02-28T13:09:58.400Z,102924.87
2023-02-28T13:15:12.884Z,102913.28
2023-02-28T13:20:19.601Z,102907.44
2023-02-28T13:25:58.646Z,102897.09
2023-02-28T13:31:05.968Z,102904.13
2023-02-28T13:36:13.327Z,102888.59
2023-02-28T13:41:53.401Z,102901.94
2023-02-28T13:47:25.491Z,102884.00
2023-02-28T13:52:29.618Z,102881.84
2023-02-28T13:57:46.539Z,102878.16
2023-02-28T14:03:09.953Z,102872.53
2023-02-28T14:08:18.787Z,102884.69
2023-02-28T14:13:50.110Z,102873.22
2023-02-28T14:19:02.648Z,102872.34
2023-02-28T14:24:48.772Z,102865.22
2023-02-28T14:30:38.878Z,102868.75
2023-02-28T14:35:56.255Z,102871.28
2023-02-28T14:41:05.426Z,102866.13
2023-02-28T14:46:09.261Z,102867.75
2023-02-28T14:51:20.280Z,102861.91
2023-02-28T14:56:28.177Z,102851.31
2023-02-28T15:01:32.980Z,102852.16
2023-02-28T15:06:38.149Z,102844.84
2023-02-28T15:11:42.329Z,102850.63
2023-02-28T15:16:51.091Z,102844.75
2023-02-28T15:22:00.552Z,102843.00
2023-02-28T15:27:08.599Z,102855.28
2023-02-28T15:32:26.972Z,102850.44
2023-02-28T15:37:40.640Z,102858.75
2023-02-28T15:42:45.769Z,102853.00
2023-02-28T15:47:49.910Z,102854.88
2023-02-28T15:52:54.993Z,102856.00
2023-02-28T15:58:02.227Z,102857.59
2023-02-28T16:03:27.515Z,102866.38
2023-02-28T16:08:32.516Z,102859.91
2023-02-28T16:13:36.323Z,102861.41
2023-02-28T16:18:40.026Z,102863.81
2023-02-28T16:23:45.212Z,102858.38
2023-02-28T16:28:49.226Z,102868.62
2023-02-28T16:33:52.918Z,102871.38
2023-02-28T16:38:58.070Z,102871.78
2023-02-28T16:44:02.474Z,102867.25
2023-02-28T16:49:06.327Z,102874.09
2023-02-28T16:54:11.432Z,102878.63
2023-02-28T16:59:17.165Z,102885.09
2023-02-28T17:04:20.912Z,102882.72
2023-02-28T17:09:36.753Z,102896.22
2023-02-28T17:14:45.557Z,102897.72
2023-02-28T17:19:49.734Z,102898.50
2023-02-28T17:24:56.822Z,102910.81
2023-02-28T17:30:00.889Z,102917.00
2023-02-28T17:35:04.770Z,102917.41
2023-02-28T17:40:15.813Z,102931.31
2023-02-28T17:45:19.686Z,102936.88
2023-02-28T17:50:24.020Z,102943.16
2023-02-28T17:55:29.142Z,102949.81
2023-02-28T18:00:34.453Z,102941.91
2023-02-28T18:05:38.353Z,102959.34
2023-02-28T18:10:43.509Z,102958.13
2023-02-28T18:15:48.379Z,102964.16
2023-02-28T18:20:53.176Z,102972.84
2023-02-28T18:25:58.784Z,102967.16
2023-02-28T18:31:07.300Z,102968.25
2023-02-28T18:36:11.437Z,102961.31
2023-02-28T18:41:16.469Z,102969.28
2023-02-28T18:46:21.217Z,102966.53
2023-02-28T18:51:26.716Z,102969.72
2023-02-28T18:56:31.972Z,102963.84
2023-02-28T19:01:36.380Z,102966.03
2023-02-28T19:06:40.135Z,102952.66
2023-02-28T19:11:45.243Z,102967.81
2023-02-28T19:16:50.254Z,102969.97
2023-02-28T19:21:55.515Z,102975.09
2023-02-28T19:27:01.207Z,102983.72
2023-02-28T19:32:05.103Z,102976.03
2023-02-28T19:37:08.997Z,102985.13
2023-02-28T19:42:15.698Z,102980.00
2023-02-28T19:47:19.382Z,102985.69
2023-02-28T19:52:23.485Z,102993.47
2023-02-28T19:57:28.701Z,102995.87
2023-02-28T20:02:32.388Z,102999.00
2023-02-28T20:07:36.879Z,103010.78
2023-02-28T20:12:41.902Z,103004.47
2023-02-28T20:17:46.737Z,103007.72
2023-02-28T20:22:50.707Z,103003.13
2023-02-28T20:27:55.775Z,103007.62
2023-02-28T20:32:59.501Z,103007.47
2023-02-28T20:38:03.256Z,103007.19
2023-02-28T20:43:08.352Z,103008.06
2023-02-28T20:48:12.100Z,103007.56
2023-02-28T20:53:15.865Z,103001.91
2023-02-28T20:58:20.886Z,102992.13
2023-02-28T21:03:24.621Z,102988.84
2023-02-28T21:08:28.322Z,102994.25
2023-02-28T21:13:33.367Z,102998.94
2023-02-28T21:18:38.117Z,103002.50
2023-02-28T21:23:42.288Z,103004.91
2023-02-28T21:28:50.433Z,103011.25
2023-02-28T21:33:55.142Z,103014.13
2023-02-28T21:39:01.155Z,103012.63
2023-02-28T21:44:06.594Z,103006.88
2023-02-28T21:49:10.363Z,103014.19
2023-02-28T21:54:14.650Z,103006.25
2023-02-28T21:59:20.519Z,103002.53
2023-02-28T22:04:24.367Z,103003.13
2023-02-28T22:09:28.873Z,102995.53
2023-02-28T22:14:34.017Z,102999.03
2023-02-28T22:19:37.858Z,103002.03
2023-02-28T22:24:41.689Z,103007.13
2023-02-28T22:29:48.747Z,103009.34
2023-02-28T22:34:52.613Z,103013.41
2023-02-28T22:39:56.353Z,103017.03
2023-02-28T22:45:01.386Z,103012.87
2023-02-28T22:50:05.742Z,103014.91
2023-02-28T22:55:10.930Z,103026.50
2023-02-28T23:00:16.756Z,103027.06
2023-02-28T23:05:20.490Z,103025.59
2023-02-28T23:10:24.182Z,103030.88
2023-02-28T23:15:29.305Z,103027.84
2023-02-28T23:20:32.983Z,103031.53
2023-02-28T23:25:37.721Z,103027.16
2023-02-28T23:30:42.755Z,103032.12
2023-02-28T23:35:46.437Z,103025.91
2023-02-28T23:40:50.127Z,103024.34
2023-02-28T23:45:57.712Z,103021.59
2023-02-28T23:51:02.679Z,103015.97
2023-02-28T23:56:07.497Z,103023.31
